sensor_id;sensor_type;location;lat;lon;timestamp;P1;durP1;ratioP1;P2;durP2;ratioP2
58864;SDS011;45702;52.982;6.658;2023-07-30T00:02:19;23.13;;;7.43;;
58864;SDS011;45702;52.982;6.658;2023-07-30T00:04:45;19.40;;;6.97;;
58864;SDS011;45702;52.982;6.658;2023-07-30T00:07:11;18.52;;;6.35;;
58864;SDS011;45702;52.982;6.658;2023-07-30T00:09:38;21.98;;;8.25;;
58864;SDS011;45702;52.982;6.658;2023-07-30T00:12:04;31.33;;;7.68;;
58864;SDS011;45702;52.982;6.658;2023-07-30T00:14:31;20.33;;;7.07;;
58864;SDS011;45702;52.982;6.658;2023-07-30T00:16:57;24.35;;;7.25;;
58864;SDS011;45702;52.982;6.658;2023-07-30T00:19:23;21.13;;;7.10;;
58864;SDS011;45702;52.982;6.658;2023-07-30T00:21:48;30.17;;;7.50;;
58864;SDS011;45702;52.982;6.658;2023-07-30T00:24:14;29.90;;;7.88;;
58864;SDS011;45702;52.982;6.658;2023-07-30T00:26:40;25.58;;;7.38;;
58864;SDS011;45702;52.982;6.658;2023-07-30T00:29:06;23.05;;;6.85;;
58864;SDS011;45702;52.982;6.658;2023-07-30T00:31:32;24.67;;;7.00;;
58864;SDS011;45702;52.982;6.658;2023-07-30T00:33:57;25.95;;;7.45;;
58864;SDS011;45702;52.982;6.658;2023-07-30T00:36:23;26.00;;;7.55;;
58864;SDS011;45702;52.982;6.658;2023-07-30T00:38:49;30.33;;;8.02;;
58864;SDS011;45702;52.982;6.658;2023-07-30T00:41:14;22.15;;;7.50;;
58864;SDS011;45702;52.982;6.658;2023-07-30T00:43:40;24.30;;;6.85;;
58864;SDS011;45702;52.982;6.658;2023-07-30T00:46:06;30.33;;;8.00;;
58864;SDS011;45702;52.982;6.658;2023-07-30T00:48:32;27.75;;;7.97;;
58864;SDS011;45702;52.982;6.658;2023-07-30T00:50:58;25.60;;;7.97;;
58864;SDS011;45702;52.982;6.658;2023-07-30T00:53:25;31.70;;;7.47;;
58864;SDS011;45702;52.982;6.658;2023-07-30T00:55:52;25.45;;;7.53;;
58864;SDS011;45702;52.982;6.658;2023-07-30T00:58:20;28.27;;;7.60;;
58864;SDS011;45702;52.982;6.658;2023-07-30T01:00:46;23.48;;;7.35;;
58864;SDS011;45702;52.982;6.658;2023-07-30T01:03:13;30.48;;;7.13;;
58864;SDS011;45702;52.982;6.658;2023-07-30T01:05:39;26.83;;;7.82;;
58864;SDS011;45702;52.982;6.658;2023-07-30T01:08:05;34.20;;;7.95;;
58864;SDS011;45702;52.982;6.658;2023-07-30T01:10:30;31.88;;;7.50;;
58864;SDS011;45702;52.982;6.658;2023-07-30T01:12:59;27.52;;;6.93;;
58864;SDS011;45702;52.982;6.658;2023-07-30T01:15:26;30.52;;;8.07;;
58864;SDS011;45702;52.982;6.658;2023-07-30T01:17:53;26.15;;;7.78;;
58864;SDS011;45702;52.982;6.658;2023-07-30T01:20:20;27.30;;;7.63;;
58864;SDS011;45702;52.982;6.658;2023-07-30T01:22:46;30.15;;;8.00;;
58864;SDS011;45702;52.982;6.658;2023-07-30T01:25:13;32.65;;;7.10;;
58864;SDS011;45702;52.982;6.658;2023-07-30T01:27:40;32.22;;;7.75;;
58864;SDS011;45702;52.982;6.658;2023-07-30T01:30:17;27.98;;;6.80;;
58864;SDS011;45702;52.982;6.658;2023-07-30T01:32:49;30.83;;;7.45;;
58864;SDS011;45702;52.982;6.658;2023-07-30T01:35:15;39.15;;;7.50;;
58864;SDS011;45702;52.982;6.658;2023-07-30T01:37:45;41.33;;;7.85;;
58864;SDS011;45702;52.982;6.658;2023-07-30T01:40:12;36.15;;;7.20;;
58864;SDS011;45702;52.982;6.658;2023-07-30T01:42:38;40.85;;;8.18;;
58864;SDS011;45702;52.982;6.658;2023-07-30T01:45:04;37.58;;;7.93;;
58864;SDS011;45702;52.982;6.658;2023-07-30T01:47:31;41.15;;;8.05;;
58864;SDS011;45702;52.982;6.658;2023-07-30T01:49:57;38.83;;;7.78;;
58864;SDS011;45702;52.982;6.658;2023-07-30T01:52:23;31.70;;;7.43;;
58864;SDS011;45702;52.982;6.658;2023-07-30T01:54:48;34.33;;;7.38;;
58864;SDS011;45702;52.982;6.658;2023-07-30T01:57:14;35.78;;;6.95;;
58864;SDS011;45702;52.982;6.658;2023-07-30T01:59:40;32.67;;;7.20;;
58864;SDS011;45702;52.982;6.658;2023-07-30T02:02:05;32.83;;;7.50;;
58864;SDS011;45702;52.982;6.658;2023-07-30T02:04:32;38.30;;;7.60;;
58864;SDS011;45702;52.982;6.658;2023-07-30T02:06:58;29.45;;;7.72;;
58864;SDS011;45702;52.982;6.658;2023-07-30T02:09:23;34.90;;;7.90;;
58864;SDS011;45702;52.982;6.658;2023-07-30T02:11:50;32.38;;;8.52;;
58864;SDS011;45702;52.982;6.658;2023-07-30T02:14:17;28.80;;;7.45;;
58864;SDS011;45702;52.982;6.658;2023-07-30T02:16:43;28.15;;;7.55;;
58864;SDS011;45702;52.982;6.658;2023-07-30T02:19:09;36.67;;;7.22;;
58864;SDS011;45702;52.982;6.658;2023-07-30T02:21:35;27.50;;;7.25;;
58864;SDS011;45702;52.982;6.658;2023-07-30T02:24:02;31.75;;;7.82;;
58864;SDS011;45702;52.982;6.658;2023-07-30T02:26:28;31.58;;;7.65;;
58864;SDS011;45702;52.982;6.658;2023-07-30T02:28:53;30.25;;;7.45;;
58864;SDS011;45702;52.982;6.658;2023-07-30T02:31:19;30.08;;;7.78;;
58864;SDS011;45702;52.982;6.658;2023-07-30T02:33:45;24.00;;;7.15;;
58864;SDS011;45702;52.982;6.658;2023-07-30T02:36:11;29.17;;;7.15;;
58864;SDS011;45702;52.982;6.658;2023-07-30T02:38:36;28.80;;;7.47;;
58864;SDS011;45702;52.982;6.658;2023-07-30T02:41:02;34.63;;;7.93;;
58864;SDS011;45702;52.982;6.658;2023-07-30T02:43:28;27.08;;;7.13;;
58864;SDS011;45702;52.982;6.658;2023-07-30T02:45:53;28.30;;;7.68;;
58864;SDS011;45702;52.982;6.658;2023-07-30T02:48:19;28.52;;;6.95;;
58864;SDS011;45702;52.982;6.658;2023-07-30T02:50:45;31.45;;;7.18;;
58864;SDS011;45702;52.982;6.658;2023-07-30T02:53:10;33.53;;;7.28;;
58864;SDS011;45702;52.982;6.658;2023-07-30T02:55:36;24.48;;;6.72;;
58864;SDS011;45702;52.982;6.658;2023-07-30T02:58:02;28.73;;;6.45;;
58864;SDS011;45702;52.982;6.658;2023-07-30T03:00:27;30.40;;;6.78;;
58864;SDS011;45702;52.982;6.658;2023-07-30T03:02:53;23.83;;;6.38;;
58864;SDS011;45702;52.982;6.658;2023-07-30T03:05:19;29.65;;;6.70;;
58864;SDS011;45702;52.982;6.658;2023-07-30T03:07:45;29.08;;;6.85;;
58864;SDS011;45702;52.982;6.658;2023-07-30T03:10:10;27.23;;;7.55;;
58864;SDS011;45702;52.982;6.658;2023-07-30T03:12:36;30.05;;;7.13;;
58864;SDS011;45702;52.982;6.658;2023-07-30T03:15:02;29.58;;;7.25;;
58864;SDS011;45702;52.982;6.658;2023-07-30T03:17:28;29.60;;;6.85;;
58864;SDS011;45702;52.982;6.658;2023-07-30T03:19:53;25.80;;;6.28;;
58864;SDS011;45702;52.982;6.658;2023-07-30T03:22:19;20.20;;;6.15;;
58864;SDS011;45702;52.982;6.658;2023-07-30T03:24:48;31.35;;;7.47;;
58864;SDS011;45702;52.982;6.658;2023-07-30T03:27:14;30.02;;;6.75;;
58864;SDS011;45702;52.982;6.658;2023-07-30T03:29:40;28.85;;;6.65;;
58864;SDS011;45702;52.982;6.658;2023-07-30T03:32:06;24.50;;;5.85;;
58864;SDS011;45702;52.982;6.658;2023-07-30T03:34:32;24.15;;;6.45;;
58864;SDS011;45702;52.982;6.658;2023-07-30T03:36:58;32.55;;;6.13;;
58864;SDS011;45702;52.982;6.658;2023-07-30T03:39:25;25.13;;;6.10;;
58864;SDS011;45702;52.982;6.658;2023-07-30T03:41:51;22.70;;;6.18;;
58864;SDS011;45702;52.982;6.658;2023-07-30T03:44:17;26.90;;;5.40;;
58864;SDS011;45702;52.982;6.658;2023-07-30T03:46:43;27.20;;;5.72;;
58864;SDS011;45702;52.982;6.658;2023-07-30T03:49:09;25.92;;;5.57;;
58864;SDS011;45702;52.982;6.658;2023-07-30T03:51:34;27.48;;;5.95;;
58864;SDS011;45702;52.982;6.658;2023-07-30T03:54:00;24.35;;;5.82;;
58864;SDS011;45702;52.982;6.658;2023-07-30T03:56:26;19.55;;;5.60;;
58864;SDS011;45702;52.982;6.658;2023-07-30T03:58:52;28.23;;;6.10;;
58864;SDS011;45702;52.982;6.658;2023-07-30T04:01:17;26.73;;;5.93;;
58864;SDS011;45702;52.982;6.658;2023-07-30T04:03:43;26.73;;;5.40;;
58864;SDS011;45702;52.982;6.658;2023-07-30T04:06:09;26.75;;;5.57;;
58864;SDS011;45702;52.982;6.658;2023-07-30T04:08:34;26.73;;;5.32;;
58864;SDS011;45702;52.982;6.658;2023-07-30T04:11:00;21.42;;;5.38;;
58864;SDS011;45702;52.982;6.658;2023-07-30T04:13:26;27.75;;;5.85;;
58864;SDS011;45702;52.982;6.658;2023-07-30T04:15:51;26.88;;;5.68;;
58864;SDS011;45702;52.982;6.658;2023-07-30T04:18:17;29.27;;;5.93;;
58864;SDS011;45702;52.982;6.658;2023-07-30T04:20:43;29.05;;;5.47;;
58864;SDS011;45702;52.982;6.658;2023-07-30T04:23:08;22.67;;;5.72;;
58864;SDS011;45702;52.982;6.658;2023-07-30T04:25:34;22.10;;;5.55;;
58864;SDS011;45702;52.982;6.658;2023-07-30T04:28:00;25.83;;;5.88;;
58864;SDS011;45702;52.982;6.658;2023-07-30T04:30:25;31.90;;;5.57;;
58864;SDS011;45702;52.982;6.658;2023-07-30T04:32:51;21.85;;;5.40;;
58864;SDS011;45702;52.982;6.658;2023-07-30T04:35:17;19.85;;;5.32;;
58864;SDS011;45702;52.982;6.658;2023-07-30T04:37:43;26.02;;;5.63;;
58864;SDS011;45702;52.982;6.658;2023-07-30T04:40:08;23.67;;;5.55;;
58864;SDS011;45702;52.982;6.658;2023-07-30T04:42:35;23.02;;;5.72;;
58864;SDS011;45702;52.982;6.658;2023-07-30T04:45:00;23.08;;;5.63;;
58864;SDS011;45702;52.982;6.658;2023-07-30T04:47:26;27.88;;;5.65;;
58864;SDS011;45702;52.982;6.658;2023-07-30T04:49:52;28.25;;;6.13;;
58864;SDS011;45702;52.982;6.658;2023-07-30T04:52:18;31.15;;;6.00;;
58864;SDS011;45702;52.982;6.658;2023-07-30T04:54:44;25.15;;;6.00;;
58864;SDS011;45702;52.982;6.658;2023-07-30T04:57:10;27.23;;;6.60;;
58864;SDS011;45702;52.982;6.658;2023-07-30T04:59:36;25.63;;;5.72;;
58864;SDS011;45702;52.982;6.658;2023-07-30T05:02:01;29.20;;;6.15;;
58864;SDS011;45702;52.982;6.658;2023-07-30T05:04:27;27.38;;;6.10;;
58864;SDS011;45702;52.982;6.658;2023-07-30T05:06:53;27.55;;;5.60;;
58864;SDS011;45702;52.982;6.658;2023-07-30T05:09:19;29.85;;;6.88;;
58864;SDS011;45702;52.982;6.658;2023-07-30T05:11:44;31.15;;;6.00;;
58864;SDS011;45702;52.982;6.658;2023-07-30T05:14:10;36.10;;;6.75;;
58864;SDS011;45702;52.982;6.658;2023-07-30T05:16:36;35.13;;;6.43;;
58864;SDS011;45702;52.982;6.658;2023-07-30T05:19:02;35.15;;;5.80;;
58864;SDS011;45702;52.982;6.658;2023-07-30T05:21:28;25.90;;;5.78;;
58864;SDS011;45702;52.982;6.658;2023-07-30T05:23:54;31.60;;;6.38;;
58864;SDS011;45702;52.982;6.658;2023-07-30T05:26:19;30.15;;;6.22;;
58864;SDS011;45702;52.982;6.658;2023-07-30T05:28:45;34.55;;;6.32;;
58864;SDS011;45702;52.982;6.658;2023-07-30T05:31:11;31.05;;;6.13;;
58864;SDS011;45702;52.982;6.658;2023-07-30T05:33:36;30.60;;;6.50;;
58864;SDS011;45702;52.982;6.658;2023-07-30T05:36:02;27.00;;;6.30;;
58864;SDS011;45702;52.982;6.658;2023-07-30T05:38:28;36.38;;;6.18;;
58864;SDS011;45702;52.982;6.658;2023-07-30T05:40:54;28.23;;;6.32;;
58864;SDS011;45702;52.982;6.658;2023-07-30T05:43:19;27.40;;;6.30;;
58864;SDS011;45702;52.982;6.658;2023-07-30T05:45:45;31.55;;;6.03;;
58864;SDS011;45702;52.982;6.658;2023-07-30T05:48:11;29.75;;;6.15;;
58864;SDS011;45702;52.982;6.658;2023-07-30T05:50:36;30.02;;;6.00;;
58864;SDS011;45702;52.982;6.658;2023-07-30T05:53:02;25.10;;;6.40;;
58864;SDS011;45702;52.982;6.658;2023-07-30T05:55:28;32.90;;;6.78;;
58864;SDS011;45702;52.982;6.658;2023-07-30T05:57:55;31.80;;;6.40;;
58864;SDS011;45702;52.982;6.658;2023-07-30T06:00:20;32.25;;;6.72;;
58864;SDS011;45702;52.982;6.658;2023-07-30T06:02:46;33.00;;;6.30;;
58864;SDS011;45702;52.982;6.658;2023-07-30T06:05:12;31.23;;;7.65;;
58864;SDS011;45702;52.982;6.658;2023-07-30T06:07:38;25.55;;;5.57;;
58864;SDS011;45702;52.982;6.658;2023-07-30T06:10:04;28.13;;;6.40;;
58864;SDS011;45702;52.982;6.658;2023-07-30T06:12:30;38.22;;;6.10;;
58864;SDS011;45702;52.982;6.658;2023-07-30T06:14:55;24.02;;;5.88;;
58864;SDS011;45702;52.982;6.658;2023-07-30T06:17:21;24.65;;;6.22;;
58864;SDS011;45702;52.982;6.658;2023-07-30T06:19:47;32.75;;;6.38;;
58864;SDS011;45702;52.982;6.658;2023-07-30T06:22:13;25.92;;;6.57;;
58864;SDS011;45702;52.982;6.658;2023-07-30T06:24:38;30.15;;;6.65;;
58864;SDS011;45702;52.982;6.658;2023-07-30T06:27:04;37.40;;;6.93;;
58864;SDS011;45702;52.982;6.658;2023-07-30T06:29:30;26.52;;;6.20;;
58864;SDS011;45702;52.982;6.658;2023-07-30T06:31:56;29.30;;;6.30;;
58864;SDS011;45702;52.982;6.658;2023-07-30T06:34:21;28.60;;;6.85;;
58864;SDS011;45702;52.982;6.658;2023-07-30T06:36:47;31.15;;;7.28;;
58864;SDS011;45702;52.982;6.658;2023-07-30T06:39:13;35.22;;;7.03;;
58864;SDS011;45702;52.982;6.658;2023-07-30T06:41:39;30.88;;;6.55;;
58864;SDS011;45702;52.982;6.658;2023-07-30T06:44:05;35.45;;;6.65;;
58864;SDS011;45702;52.982;6.658;2023-07-30T06:46:31;26.55;;;6.00;;
58864;SDS011;45702;52.982;6.658;2023-07-30T06:48:56;37.03;;;7.03;;
58864;SDS011;45702;52.982;6.658;2023-07-30T06:51:24;38.17;;;6.72;;
58864;SDS011;45702;52.982;6.658;2023-07-30T06:53:50;34.55;;;6.88;;
58864;SDS011;45702;52.982;6.658;2023-07-30T06:56:16;30.90;;;6.90;;
58864;SDS011;45702;52.982;6.658;2023-07-30T06:58:41;33.58;;;6.22;;
58864;SDS011;45702;52.982;6.658;2023-07-30T07:01:07;29.25;;;6.20;;
58864;SDS011;45702;52.982;6.658;2023-07-30T07:03:33;30.95;;;6.85;;
58864;SDS011;45702;52.982;6.658;2023-07-30T07:05:58;37.47;;;6.50;;
58864;SDS011;45702;52.982;6.658;2023-07-30T07:08:24;29.20;;;5.85;;
58864;SDS011;45702;52.982;6.658;2023-07-30T07:10:50;37.38;;;5.95;;
58864;SDS011;45702;52.982;6.658;2023-07-30T07:13:16;28.83;;;5.20;;
58864;SDS011;45702;52.982;6.658;2023-07-30T07:15:42;35.78;;;5.82;;
58864;SDS011;45702;52.982;6.658;2023-07-30T07:18:08;25.05;;;4.90;;
58864;SDS011;45702;52.982;6.658;2023-07-30T07:20:35;30.48;;;4.72;;
58864;SDS011;45702;52.982;6.658;2023-07-30T07:23:01;25.70;;;5.55;;
58864;SDS011;45702;52.982;6.658;2023-07-30T07:25:27;26.20;;;5.03;;
58864;SDS011;45702;52.982;6.658;2023-07-30T07:27:52;23.63;;;4.70;;
58864;SDS011;45702;52.982;6.658;2023-07-30T07:30:18;24.63;;;4.38;;
58864;SDS011;45702;52.982;6.658;2023-07-30T07:32:45;23.92;;;5.30;;
58864;SDS011;45702;52.982;6.658;2023-07-30T07:35:15;24.10;;;5.03;;
58864;SDS011;45702;52.982;6.658;2023-07-30T07:37:42;29.48;;;5.10;;
58864;SDS011;45702;52.982;6.658;2023-07-30T07:40:08;26.85;;;4.00;;
58864;SDS011;45702;52.982;6.658;2023-07-30T07:42:37;30.05;;;4.30;;
58864;SDS011;45702;52.982;6.658;2023-07-30T07:45:04;29.00;;;4.20;;
58864;SDS011;45702;52.982;6.658;2023-07-30T07:47:31;23.60;;;4.30;;
58864;SDS011;45702;52.982;6.658;2023-07-30T07:49:57;18.30;;;3.60;;
58864;SDS011;45702;52.982;6.658;2023-07-30T07:52:23;22.63;;;4.25;;
58864;SDS011;45702;52.982;6.658;2023-07-30T07:54:48;22.73;;;4.00;;
58864;SDS011;45702;52.982;6.658;2023-07-30T07:57:14;25.75;;;3.97;;
58864;SDS011;45702;52.982;6.658;2023-07-30T07:59:40;24.52;;;4.40;;
58864;SDS011;45702;52.982;6.658;2023-07-30T08:02:09;22.05;;;4.50;;
58864;SDS011;45702;52.982;6.658;2023-07-30T08:04:36;22.88;;;3.75;;
58864;SDS011;45702;52.982;6.658;2023-07-30T08:07:01;22.23;;;4.28;;
58864;SDS011;45702;52.982;6.658;2023-07-30T08:09:28;23.52;;;4.18;;
58864;SDS011;45702;52.982;6.658;2023-07-30T08:11:55;21.38;;;3.78;;
58864;SDS011;45702;52.982;6.658;2023-07-30T08:14:20;21.83;;;4.10;;
58864;SDS011;45702;52.982;6.658;2023-07-30T08:16:46;17.08;;;3.50;;
58864;SDS011;45702;52.982;6.658;2023-07-30T08:19:12;21.75;;;3.92;;
58864;SDS011;45702;52.982;6.658;2023-07-30T08:21:38;21.42;;;3.80;;
58864;SDS011;45702;52.982;6.658;2023-07-30T08:24:04;15.80;;;3.78;;
58864;SDS011;45702;52.982;6.658;2023-07-30T08:26:30;20.73;;;3.65;;
58864;SDS011;45702;52.982;6.658;2023-07-30T08:28:57;19.83;;;3.65;;
58864;SDS011;45702;52.982;6.658;2023-07-30T08:31:23;24.58;;;4.00;;
58864;SDS011;45702;52.982;6.658;2023-07-30T08:33:49;20.63;;;4.20;;
58864;SDS011;45702;52.982;6.658;2023-07-30T08:36:14;22.48;;;4.05;;
58864;SDS011;45702;52.982;6.658;2023-07-30T08:38:40;16.83;;;4.03;;
58864;SDS011;45702;52.982;6.658;2023-07-30T08:41:06;20.25;;;4.15;;
58864;SDS011;45702;52.982;6.658;2023-07-30T08:43:33;25.17;;;4.57;;
58864;SDS011;45702;52.982;6.658;2023-07-30T08:46:00;22.42;;;3.80;;
58864;SDS011;45702;52.982;6.658;2023-07-30T08:48:26;19.42;;;4.03;;
58864;SDS011;45702;52.982;6.658;2023-07-30T08:50:52;17.70;;;3.47;;
58864;SDS011;45702;52.982;6.658;2023-07-30T08:53:21;18.52;;;4.22;;
58864;SDS011;45702;52.982;6.658;2023-07-30T08:55:49;19.67;;;4.20;;
58864;SDS011;45702;52.982;6.658;2023-07-30T08:58:15;21.52;;;4.97;;
58864;SDS011;45702;52.982;6.658;2023-07-30T09:00:42;20.65;;;4.82;;
58864;SDS011;45702;52.982;6.658;2023-07-30T09:03:09;17.00;;;4.32;;
58864;SDS011;45702;52.982;6.658;2023-07-30T09:05:37;18.88;;;5.07;;
58864;SDS011;45702;52.982;6.658;2023-07-30T09:08:03;23.23;;;4.50;;
58864;SDS011;45702;52.982;6.658;2023-07-30T09:10:29;22.13;;;4.65;;
58864;SDS011;45702;52.982;6.658;2023-07-30T09:12:56;18.02;;;5.03;;
58864;SDS011;45702;52.982;6.658;2023-07-30T09:15:35;22.52;;;5.10;;
58864;SDS011;45702;52.982;6.658;2023-07-30T09:18:05;19.75;;;4.43;;
58864;SDS011;45702;52.982;6.658;2023-07-30T09:20:38;17.80;;;4.28;;
58864;SDS011;45702;52.982;6.658;2023-07-30T09:23:05;16.85;;;4.30;;
58864;SDS011;45702;52.982;6.658;2023-07-30T09:25:35;23.38;;;5.10;;
58864;SDS011;45702;52.982;6.658;2023-07-30T09:28:01;17.20;;;4.32;;
58864;SDS011;45702;52.982;6.658;2023-07-30T09:30:27;18.52;;;4.13;;
58864;SDS011;45702;52.982;6.658;2023-07-30T09:32:54;26.15;;;5.13;;
58864;SDS011;45702;52.982;6.658;2023-07-30T09:35:21;15.47;;;3.27;;
58864;SDS011;45702;52.982;6.658;2023-07-30T09:37:50;12.27;;;3.65;;
58864;SDS011;45702;52.982;6.658;2023-07-30T09:40:30;22.15;;;4.93;;
58864;SDS011;45702;52.982;6.658;2023-07-30T09:43:00;17.45;;;4.00;;
58864;SDS011;45702;52.982;6.658;2023-07-30T09:45:27;15.98;;;3.00;;
58864;SDS011;45702;52.982;6.658;2023-07-30T09:47:53;11.85;;;3.47;;
58864;SDS011;45702;52.982;6.658;2023-07-30T09:52:46;10.07;;;3.10;;
58864;SDS011;45702;52.982;6.658;2023-07-30T09:55:15;8.77;;;2.92;;
58864;SDS011;45702;52.982;6.658;2023-07-30T09:57:41;14.95;;;3.50;;
58864;SDS011;45702;52.982;6.658;2023-07-30T10:00:07;15.18;;;3.70;;
58864;SDS011;45702;52.982;6.658;2023-07-30T10:02:40;14.60;;;3.50;;
58864;SDS011;45702;52.982;6.658;2023-07-30T10:05:14;10.50;;;3.00;;
58864;SDS011;45702;52.982;6.658;2023-07-30T10:07:42;13.38;;;3.80;;
58864;SDS011;45702;52.982;6.658;2023-07-30T10:10:15;12.32;;;3.13;;
58864;SDS011;45702;52.982;6.658;2023-07-30T10:12:40;17.75;;;3.92;;
58864;SDS011;45702;52.982;6.658;2023-07-30T10:15:08;15.98;;;3.50;;
58864;SDS011;45702;52.982;6.658;2023-07-30T10:17:34;10.85;;;3.33;;
58864;SDS011;45702;52.982;6.658;2023-07-30T10:22:45;12.52;;;3.60;;
58864;SDS011;45702;52.982;6.658;2023-07-30T10:25:12;11.15;;;3.90;;
58864;SDS011;45702;52.982;6.658;2023-07-30T10:27:39;14.18;;;4.32;;
58864;SDS011;45702;52.982;6.658;2023-07-30T10:30:20;15.75;;;4.40;;
58864;SDS011;45702;52.982;6.658;2023-07-30T10:38:17;20.20;;;5.00;;
58864;SDS011;45702;52.982;6.658;2023-07-30T10:41:10;16.27;;;4.75;;
58864;SDS011;45702;52.982;6.658;2023-07-30T10:43:50;18.88;;;4.05;;
58864;SDS011;45702;52.982;6.658;2023-07-30T10:46:32;16.58;;;4.22;;
58864;SDS011;45702;52.982;6.658;2023-07-30T10:49:43;18.15;;;4.53;;
58864;SDS011;45702;52.982;6.658;2023-07-30T10:53:14;15.45;;;3.97;;
58864;SDS011;45702;52.982;6.658;2023-07-30T10:56:29;14.65;;;3.65;;
58864;SDS011;45702;52.982;6.658;2023-07-30T10:58:55;21.70;;;4.18;;
58864;SDS011;45702;52.982;6.658;2023-07-30T11:01:23;14.57;;;3.47;;
58864;SDS011;45702;52.982;6.658;2023-07-30T11:03:50;18.10;;;3.33;;
58864;SDS011;45702;52.982;6.658;2023-07-30T11:06:23;15.45;;;3.60;;
58864;SDS011;45702;52.982;6.658;2023-07-30T11:08:50;17.27;;;3.50;;
58864;SDS011;45702;52.982;6.658;2023-07-30T11:11:16;16.55;;;3.30;;
58864;SDS011;45702;52.982;6.658;2023-07-30T11:13:42;17.38;;;3.75;;
58864;SDS011;45702;52.982;6.658;2023-07-30T11:16:11;13.85;;;3.53;;
58864;SDS011;45702;52.982;6.658;2023-07-30T11:18:39;12.68;;;3.47;;
58864;SDS011;45702;52.982;6.658;2023-07-30T11:21:10;13.05;;;2.70;;
58864;SDS011;45702;52.982;6.658;2023-07-30T11:23:40;14.23;;;3.10;;
58864;SDS011;45702;52.982;6.658;2023-07-30T11:26:07;13.88;;;2.80;;
58864;SDS011;45702;52.982;6.658;2023-07-30T11:28:38;19.67;;;3.65;;
58864;SDS011;45702;52.982;6.658;2023-07-30T11:31:09;14.75;;;3.00;;
58864;SDS011;45702;52.982;6.658;2023-07-30T11:33:37;13.45;;;2.72;;
58864;SDS011;45702;52.982;6.658;2023-07-30T11:36:09;15.60;;;3.05;;
58864;SDS011;45702;52.982;6.658;2023-07-30T11:38:37;12.57;;;3.20;;
58864;SDS011;45702;52.982;6.658;2023-07-30T11:41:04;10.23;;;2.65;;
58864;SDS011;45702;52.982;6.658;2023-07-30T11:43:30;12.65;;;2.80;;
58864;SDS011;45702;52.982;6.658;2023-07-30T11:46:06;14.43;;;2.88;;
58864;SDS011;45702;52.982;6.658;2023-07-30T11:48:33;12.32;;;2.67;;
58864;SDS011;45702;52.982;6.658;2023-07-30T11:51:00;13.82;;;2.40;;
58864;SDS011;45702;52.982;6.658;2023-07-30T11:53:44;8.75;;;2.20;;
58864;SDS011;45702;52.982;6.658;2023-07-30T11:56:18;12.77;;;2.63;;
58864;SDS011;45702;52.982;6.658;2023-07-30T11:58:50;10.38;;;2.97;;
58864;SDS011;45702;52.982;6.658;2023-07-30T12:01:18;10.90;;;2.28;;
58864;SDS011;45702;52.982;6.658;2023-07-30T12:03:44;10.98;;;2.60;;
58864;SDS011;45702;52.982;6.658;2023-07-30T12:06:10;11.07;;;2.72;;
58864;SDS011;45702;52.982;6.658;2023-07-30T12:08:37;13.85;;;2.63;;
58864;SDS011;45702;52.982;6.658;2023-07-30T12:11:07;11.77;;;2.58;;
58864;SDS011;45702;52.982;6.658;2023-07-30T12:13:34;10.20;;;2.55;;
58864;SDS011;45702;52.982;6.658;2023-07-30T12:16:07;11.15;;;2.60;;
58864;SDS011;45702;52.982;6.658;2023-07-30T12:18:32;14.20;;;2.70;;
58864;SDS011;45702;52.982;6.658;2023-07-30T12:20:58;13.75;;;2.80;;
58864;SDS011;45702;52.982;6.658;2023-07-30T12:23:24;10.02;;;2.33;;
58864;SDS011;45702;52.982;6.658;2023-07-30T12:25:50;13.82;;;2.67;;
58864;SDS011;45702;52.982;6.658;2023-07-30T12:28:16;13.10;;;2.95;;
58864;SDS011;45702;52.982;6.658;2023-07-30T12:30:41;14.80;;;3.10;;
58864;SDS011;45702;52.982;6.658;2023-07-30T12:33:07;16.95;;;2.90;;
58864;SDS011;45702;52.982;6.658;2023-07-30T12:35:33;12.95;;;3.00;;
58864;SDS011;45702;52.982;6.658;2023-07-30T12:37:59;13.38;;;2.80;;
58864;SDS011;45702;52.982;6.658;2023-07-30T12:40:25;12.43;;;3.10;;
58864;SDS011;45702;52.982;6.658;2023-07-30T12:45:20;11.98;;;3.60;;
58864;SDS011;45702;52.982;6.658;2023-07-30T12:47:46;14.30;;;2.92;;
58864;SDS011;45702;52.982;6.658;2023-07-30T12:50:16;13.60;;;2.83;;
58864;SDS011;45702;52.982;6.658;2023-07-30T12:52:42;13.55;;;3.30;;
58864;SDS011;45702;52.982;6.658;2023-07-30T12:55:09;15.85;;;3.10;;
58864;SDS011;45702;52.982;6.658;2023-07-30T12:57:35;11.80;;;2.90;;
58864;SDS011;45702;52.982;6.658;2023-07-30T13:00:02;13.73;;;2.95;;
58864;SDS011;45702;52.982;6.658;2023-07-30T13:02:30;12.48;;;2.65;;
58864;SDS011;45702;52.982;6.658;2023-07-30T13:04:59;8.85;;;2.03;;
58864;SDS011;45702;52.982;6.658;2023-07-30T13:07:25;8.20;;;2.03;;
58864;SDS011;45702;52.982;6.658;2023-07-30T13:10:01;10.80;;;2.03;;
58864;SDS011;45702;52.982;6.658;2023-07-30T13:12:31;7.97;;;1.90;;
58864;SDS011;45702;52.982;6.658;2023-07-30T13:14:57;10.50;;;1.90;;
58864;SDS011;45702;52.982;6.658;2023-07-30T13:17:23;8.57;;;1.80;;
58864;SDS011;45702;52.982;6.658;2023-07-30T13:19:49;8.60;;;1.92;;
58864;SDS011;45702;52.982;6.658;2023-07-30T13:22:14;10.70;;;1.60;;
58864;SDS011;45702;52.982;6.658;2023-07-30T13:24:40;9.85;;;1.88;;
58864;SDS011;45702;52.982;6.658;2023-07-30T13:27:06;9.55;;;2.00;;
58864;SDS011;45702;52.982;6.658;2023-07-30T13:29:31;11.23;;;1.92;;
58864;SDS011;45702;52.982;6.658;2023-07-30T13:31:57;10.63;;;2.30;;
58864;SDS011;45702;52.982;6.658;2023-07-30T13:34:23;8.88;;;2.33;;
58864;SDS011;45702;52.982;6.658;2023-07-30T13:36:49;13.07;;;2.10;;
58864;SDS011;45702;52.982;6.658;2023-07-30T13:39:15;11.30;;;2.10;;
58864;SDS011;45702;52.982;6.658;2023-07-30T13:41:40;12.40;;;2.20;;
58864;SDS011;45702;52.982;6.658;2023-07-30T13:44:06;14.63;;;2.25;;
58864;SDS011;45702;52.982;6.658;2023-07-30T13:46:32;12.45;;;1.80;;
58864;SDS011;45702;52.982;6.658;2023-07-30T13:48:57;9.88;;;1.80;;
58864;SDS011;45702;52.982;6.658;2023-07-30T13:51:23;10.13;;;1.90;;
58864;SDS011;45702;52.982;6.658;2023-07-30T13:53:49;9.00;;;2.00;;
58864;SDS011;45702;52.982;6.658;2023-07-30T13:56:15;13.13;;;2.15;;
58864;SDS011;45702;52.982;6.658;2023-07-30T13:58:41;14.75;;;2.03;;
58864;SDS011;45702;52.982;6.658;2023-07-30T14:01:07;10.38;;;2.45;;
58864;SDS011;45702;52.982;6.658;2023-07-30T14:03:34;11.90;;;2.27;;
58864;SDS011;45702;52.982;6.658;2023-07-30T14:06:00;7.82;;;2.00;;
58864;SDS011;45702;52.982;6.658;2023-07-30T14:08:26;9.25;;;1.90;;
58864;SDS011;45702;52.982;6.658;2023-07-30T14:10:52;9.77;;;2.20;;
58864;SDS011;45702;52.982;6.658;2023-07-30T14:13:17;13.80;;;2.15;;
58864;SDS011;45702;52.982;6.658;2023-07-30T14:15:43;16.48;;;2.15;;
58864;SDS011;45702;52.982;6.658;2023-07-30T14:18:09;11.43;;;1.98;;
58864;SDS011;45702;52.982;6.658;2023-07-30T14:20:35;9.13;;;2.00;;
58864;SDS011;45702;52.982;6.658;2023-07-30T14:23:03;12.00;;;2.05;;
58864;SDS011;45702;52.982;6.658;2023-07-30T14:25:29;10.32;;;1.88;;
58864;SDS011;45702;52.982;6.658;2023-07-30T14:27:55;12.30;;;1.80;;
58864;SDS011;45702;52.982;6.658;2023-07-30T14:30:20;13.35;;;2.03;;
58864;SDS011;45702;52.982;6.658;2023-07-30T14:32:46;9.82;;;1.60;;
58864;SDS011;45702;52.982;6.658;2023-07-30T14:35:12;8.23;;;1.50;;
58864;SDS011;45702;52.982;6.658;2023-07-30T14:37:37;10.32;;;2.00;;
58864;SDS011;45702;52.982;6.658;2023-07-30T14:40:03;7.85;;;1.63;;
58864;SDS011;45702;52.982;6.658;2023-07-30T14:42:29;10.63;;;1.70;;
58864;SDS011;45702;52.982;6.658;2023-07-30T14:44:55;11.88;;;2.10;;
58864;SDS011;45702;52.982;6.658;2023-07-30T14:47:22;9.63;;;2.42;;
58864;SDS011;45702;52.982;6.658;2023-07-30T14:49:48;9.57;;;1.98;;